Holladay, Utah
Current Conditions -  °F | °C
As of 1:53 PM on Thursday 23 Oct 2014 (Local Time) from KSLC Reporting Station
Broken Clouds Broken Clouds  
Wind Chill: 68°   Ceiling: 24000
Heat Index: 68°   Visibility: 10mi
Dew Point: 37°   Wind: 7mph
Humidity: 32%   Direction: 350°N
Pressure: 30.08"   Gusts: NA
Location:  40.6239°N, 111.817°W
Report Text: KSLC 231953Z 35006KT 10SM FEW160 SCT200 BKN240 20/03 A3008 RMK AO2 SLP159 ACSL DSNT ALQDS T02000028
Loading
Personal Weather Stations






























Interactive Weather Map
Tropical Storm Tracking
New forecast layout! Learn more

10-Day Weather Forecast

Advertisements
Track Severe Weather on mobile